sensor_id;sensor_type;location;lat;lon;timestamp;temperature;humidity
66257;DHT22;53049;43.446;3.698;2023-05-13T00:00:50;13.00;99.90
66257;DHT22;53049;43.446;3.698;2023-05-13T00:03:16;12.90;99.90
66257;DHT22;53049;43.446;3.698;2023-05-13T00:05:41;12.90;99.90
66257;DHT22;53049;43.446;3.698;2023-05-13T00:08:07;13.00;99.90
66257;DHT22;53049;43.446;3.698;2023-05-13T00:10:33;13.00;99.90
66257;DHT22;53049;43.446;3.698;2023-05-13T00:12:59;13.10;99.90
66257;DHT22;53049;43.446;3.698;2023-05-13T00:15:25;13.00;99.90
66257;DHT22;53049;43.446;3.698;2023-05-13T00:17:51;13.00;99.90
66257;DHT22;53049;43.446;3.698;2023-05-13T00:20:17;13.00;99.90
66257;DHT22;53049;43.446;3.698;2023-05-13T00:22:42;12.90;99.90
66257;DHT22;53049;43.446;3.698;2023-05-13T00:25:08;12.90;99.90
66257;DHT22;53049;43.446;3.698;2023-05-13T00:27:34;12.90;99.90
66257;DHT22;53049;43.446;3.698;2023-05-13T00:30:00;12.90;99.90
66257;DHT22;53049;43.446;3.698;2023-05-13T00:32:26;12.90;99.90
66257;DHT22;53049;43.446;3.698;2023-05-13T00:34:52;12.90;99.90
66257;DHT22;53049;43.446;3.698;2023-05-13T00:37:17;12.90;99.90
66257;DHT22;53049;43.446;3.698;2023-05-13T00:39:43;12.90;99.90
66257;DHT22;53049;43.446;3.698;2023-05-13T00:42:09;12.90;99.90
66257;DHT22;53049;43.446;3.698;2023-05-13T00:44:38;13.00;99.90
66257;DHT22;53049;43.446;3.698;2023-05-13T00:47:08;13.00;99.90
66257;DHT22;53049;43.446;3.698;2023-05-13T00:49:35;12.90;99.90
66257;DHT22;53049;43.446;3.698;2023-05-13T00:52:01;12.90;99.90
66257;DHT22;53049;43.446;3.698;2023-05-13T00:54:28;12.90;99.90
66257;DHT22;53049;43.446;3.698;2023-05-13T00:56:54;12.90;99.90
66257;DHT22;53049;43.446;3.698;2023-05-13T00:59:26;12.90;99.90
66257;DHT22;53049;43.446;3.698;2023-05-13T01:02:07;12.90;99.90
66257;DHT22;53049;43.446;3.698;2023-05-13T01:10:42;12.90;99.90
66257;DHT22;53049;43.446;3.698;2023-05-13T01:13:11;12.90;99.90
66257;DHT22;53049;43.446;3.698;2023-05-13T01:15:50;12.90;99.90
66257;DHT22;53049;43.446;3.698;2023-05-13T01:19:16;12.90;99.90
66257;DHT22;53049;43.446;3.698;2023-05-13T01:21:15;12.80;99.90
66257;DHT22;53049;43.446;3.698;2023-05-13T01:23:40;12.90;99.90
66257;DHT22;53049;43.446;3.698;2023-05-13T01:26:06;12.90;99.90
66257;DHT22;53049;43.446;3.698;2023-05-13T01:28:32;12.90;99.90
66257;DHT22;53049;43.446;3.698;2023-05-13T01:30:58;12.90;99.90
66257;DHT22;53049;43.446;3.698;2023-05-13T01:33:25;12.90;99.90
66257;DHT22;53049;43.446;3.698;2023-05-13T01:35:51;12.80;99.90
66257;DHT22;53049;43.446;3.698;2023-05-13T01:38:18;12.90;99.90
66257;DHT22;53049;43.446;3.698;2023-05-13T01:40:44;12.90;99.90
66257;DHT22;53049;43.446;3.698;2023-05-13T01:43:10;12.90;99.90
66257;DHT22;53049;43.446;3.698;2023-05-13T01:45:36;12.90;99.90
66257;DHT22;53049;43.446;3.698;2023-05-13T01:48:02;12.90;99.90
66257;DHT22;53049;43.446;3.698;2023-05-13T01:50:27;12.90;99.90
66257;DHT22;53049;43.446;3.698;2023-05-13T01:52:53;12.80;99.90
66257;DHT22;53049;43.446;3.698;2023-05-13T01:55:19;12.80;99.90
66257;DHT22;53049;43.446;3.698;2023-05-13T01:57:44;12.90;99.90
66257;DHT22;53049;43.446;3.698;2023-05-13T02:00:10;12.80;99.90
66257;DHT22;53049;43.446;3.698;2023-05-13T02:02:36;12.80;99.90
66257;DHT22;53049;43.446;3.698;2023-05-13T02:05:02;12.90;99.90
66257;DHT22;53049;43.446;3.698;2023-05-13T02:07:28;12.80;99.90
66257;DHT22;53049;43.446;3.698;2023-05-13T02:09:53;12.90;99.90
66257;DHT22;53049;43.446;3.698;2023-05-13T02:12:27;12.80;99.90
66257;DHT22;53049;43.446;3.698;2023-05-13T02:14:53;12.80;99.90
66257;DHT22;53049;43.446;3.698;2023-05-13T02:17:19;12.80;99.90
66257;DHT22;53049;43.446;3.698;2023-05-13T02:19:45;12.80;99.90
66257;DHT22;53049;43.446;3.698;2023-05-13T02:22:10;12.80;99.90
66257;DHT22;53049;43.446;3.698;2023-05-13T02:24:36;12.80;99.90
66257;DHT22;53049;43.446;3.698;2023-05-13T02:27:07;12.90;99.90
66257;DHT22;53049;43.446;3.698;2023-05-13T02:29:33;12.80;99.90
66257;DHT22;53049;43.446;3.698;2023-05-13T02:31:59;12.80;99.90
66257;DHT22;53049;43.446;3.698;2023-05-13T02:34:24;12.80;99.90
66257;DHT22;53049;43.446;3.698;2023-05-13T02:36:50;12.80;99.90
66257;DHT22;53049;43.446;3.698;2023-05-13T02:39:16;12.70;99.90
66257;DHT22;53049;43.446;3.698;2023-05-13T02:41:42;12.70;99.90
66257;DHT22;53049;43.446;3.698;2023-05-13T02:44:09;12.70;99.90
66257;DHT22;53049;43.446;3.698;2023-05-13T02:46:35;12.70;99.90
66257;DHT22;53049;43.446;3.698;2023-05-13T02:49:01;12.60;99.90
66257;DHT22;53049;43.446;3.698;2023-05-13T02:51:26;12.60;99.90
66257;DHT22;53049;43.446;3.698;2023-05-13T02:53:52;12.60;99.90
66257;DHT22;53049;43.446;3.698;2023-05-13T02:56:18;12.60;99.90
66257;DHT22;53049;43.446;3.698;2023-05-13T02:58:43;12.60;99.90
66257;DHT22;53049;43.446;3.698;2023-05-13T03:01:09;12.60;99.90
66257;DHT22;53049;43.446;3.698;2023-05-13T03:03:35;12.50;99.90
66257;DHT22;53049;43.446;3.698;2023-05-13T03:06:01;12.60;99.90
66257;DHT22;53049;43.446;3.698;2023-05-13T03:08:26;12.60;99.90
66257;DHT22;53049;43.446;3.698;2023-05-13T03:10:52;12.50;99.90
66257;DHT22;53049;43.446;3.698;2023-05-13T03:13:18;12.60;99.90
66257;DHT22;53049;43.446;3.698;2023-05-13T03:15:43;12.60;99.90
66257;DHT22;53049;43.446;3.698;2023-05-13T03:18:09;12.60;99.90
66257;DHT22;53049;43.446;3.698;2023-05-13T03:20:34;12.60;99.90
66257;DHT22;53049;43.446;3.698;2023-05-13T03:23:00;12.60;99.90
66257;DHT22;53049;43.446;3.698;2023-05-13T03:25:26;12.50;99.90
66257;DHT22;53049;43.446;3.698;2023-05-13T03:27:52;12.60;99.90
66257;DHT22;53049;43.446;3.698;2023-05-13T03:30:18;12.50;99.90
66257;DHT22;53049;43.446;3.698;2023-05-13T03:32:44;12.60;99.90
66257;DHT22;53049;43.446;3.698;2023-05-13T03:35:09;12.60;99.90
66257;DHT22;53049;43.446;3.698;2023-05-13T03:37:35;12.50;99.90
66257;DHT22;53049;43.446;3.698;2023-05-13T03:40:01;12.50;99.90
66257;DHT22;53049;43.446;3.698;2023-05-13T03:42:27;12.60;99.90
66257;DHT22;53049;43.446;3.698;2023-05-13T03:44:55;12.60;99.90
66257;DHT22;53049;43.446;3.698;2023-05-13T03:47:21;12.60;99.90
66257;DHT22;53049;43.446;3.698;2023-05-13T03:49:47;12.60;99.90
66257;DHT22;53049;43.446;3.698;2023-05-13T03:52:13;12.60;99.90
66257;DHT22;53049;43.446;3.698;2023-05-13T03:54:39;12.60;99.90
66257;DHT22;53049;43.446;3.698;2023-05-13T03:57:06;12.60;99.90
66257;DHT22;53049;43.446;3.698;2023-05-13T03:59:32;12.60;99.90
66257;DHT22;53049;43.446;3.698;2023-05-13T04:01:57;12.50;99.90
66257;DHT22;53049;43.446;3.698;2023-05-13T04:04:23;12.50;99.90
66257;DHT22;53049;43.446;3.698;2023-05-13T04:06:48;12.40;99.90
66257;DHT22;53049;43.446;3.698;2023-05-13T04:09:14;12.40;99.90
66257;DHT22;53049;43.446;3.698;2023-05-13T04:11:40;12.40;99.90
66257;DHT22;53049;43.446;3.698;2023-05-13T04:14:05;12.40;99.90
66257;DHT22;53049;43.446;3.698;2023-05-13T04:16:31;12.40;99.90
66257;DHT22;53049;43.446;3.698;2023-05-13T04:18:56;12.40;99.90
66257;DHT22;53049;43.446;3.698;2023-05-13T04:21:22;12.50;99.90
66257;DHT22;53049;43.446;3.698;2023-05-13T04:23:48;12.40;99.90
66257;DHT22;53049;43.446;3.698;2023-05-13T04:26:13;12.50;99.90
66257;DHT22;53049;43.446;3.698;2023-05-13T04:28:39;12.50;99.90
66257;DHT22;53049;43.446;3.698;2023-05-13T04:31:05;12.50;99.90
66257;DHT22;53049;43.446;3.698;2023-05-13T04:33:30;12.50;99.90
66257;DHT22;53049;43.446;3.698;2023-05-13T04:35:56;12.50;99.90
66257;DHT22;53049;43.446;3.698;2023-05-13T04:38:22;12.50;99.90
66257;DHT22;53049;43.446;3.698;2023-05-13T04:40:47;12.50;99.90
66257;DHT22;53049;43.446;3.698;2023-05-13T04:43:13;12.50;99.90
66257;DHT22;53049;43.446;3.698;2023-05-13T04:45:39;12.60;99.90
66257;DHT22;53049;43.446;3.698;2023-05-13T04:48:05;12.70;99.90
66257;DHT22;53049;43.446;3.698;2023-05-13T04:50:31;12.70;99.90
66257;DHT22;53049;43.446;3.698;2023-05-13T04:52:57;12.70;99.90
66257;DHT22;53049;43.446;3.698;2023-05-13T04:55:23;12.70;99.90
66257;DHT22;53049;43.446;3.698;2023-05-13T04:57:48;12.70;99.90
66257;DHT22;53049;43.446;3.698;2023-05-13T05:00:15;12.70;99.90
66257;DHT22;53049;43.446;3.698;2023-05-13T05:02:40;12.70;99.90
66257;DHT22;53049;43.446;3.698;2023-05-13T05:05:06;12.80;99.90
66257;DHT22;53049;43.446;3.698;2023-05-13T05:07:32;12.70;99.90
66257;DHT22;53049;43.446;3.698;2023-05-13T05:09:58;12.80;99.90
66257;DHT22;53049;43.446;3.698;2023-05-13T05:12:24;12.80;99.90
66257;DHT22;53049;43.446;3.698;2023-05-13T05:14:50;12.80;99.90
66257;DHT22;53049;43.446;3.698;2023-05-13T05:17:15;12.80;99.90
66257;DHT22;53049;43.446;3.698;2023-05-13T05:19:41;12.80;99.90
66257;DHT22;53049;43.446;3.698;2023-05-13T05:22:07;12.80;99.90
66257;DHT22;53049;43.446;3.698;2023-05-13T05:24:32;12.80;99.90
66257;DHT22;53049;43.446;3.698;2023-05-13T05:26:58;12.90;99.90
66257;DHT22;53049;43.446;3.698;2023-05-13T05:29:24;12.90;99.90
66257;DHT22;53049;43.446;3.698;2023-05-13T05:31:49;13.00;99.90
66257;DHT22;53049;43.446;3.698;2023-05-13T05:34:15;13.00;99.90
66257;DHT22;53049;43.446;3.698;2023-05-13T05:36:41;13.10;99.90
66257;DHT22;53049;43.446;3.698;2023-05-13T05:39:06;13.10;99.90
66257;DHT22;53049;43.446;3.698;2023-05-13T05:41:33;13.20;99.90
66257;DHT22;53049;43.446;3.698;2023-05-13T05:43:59;13.20;99.90
66257;DHT22;53049;43.446;3.698;2023-05-13T05:46:25;13.30;99.90
66257;DHT22;53049;43.446;3.698;2023-05-13T05:48:50;13.40;99.90
66257;DHT22;53049;43.446;3.698;2023-05-13T05:51:16;13.40;99.90
66257;DHT22;53049;43.446;3.698;2023-05-13T05:53:42;13.50;99.90
66257;DHT22;53049;43.446;3.698;2023-05-13T05:56:07;13.60;99.90
66257;DHT22;53049;43.446;3.698;2023-05-13T05:58:33;13.70;99.90
66257;DHT22;53049;43.446;3.698;2023-05-13T06:01:00;13.80;99.90
66257;DHT22;53049;43.446;3.698;2023-05-13T06:03:26;13.80;98.80
66257;DHT22;53049;43.446;3.698;2023-05-13T06:05:52;13.80;72.10
66257;DHT22;53049;43.446;3.698;2023-05-13T06:08:18;13.90;90.50
66257;DHT22;53049;43.446;3.698;2023-05-13T06:10:44;14.00;90.00
66257;DHT22;53049;43.446;3.698;2023-05-13T06:13:09;14.00;60.40
66257;DHT22;53049;43.446;3.698;2023-05-13T06:15:37;14.10;40.00
66257;DHT22;53049;43.446;3.698;2023-05-13T06:18:03;14.10;33.00
66257;DHT22;53049;43.446;3.698;2023-05-13T06:20:30;14.10;40.00
66257;DHT22;53049;43.446;3.698;2023-05-13T06:22:56;14.10;43.80
66257;DHT22;53049;43.446;3.698;2023-05-13T06:25:21;14.20;30.60
66257;DHT22;53049;43.446;3.698;2023-05-13T06:27:47;14.20;51.20
66257;DHT22;53049;43.446;3.698;2023-05-13T06:30:13;14.30;75.60
66257;DHT22;53049;43.446;3.698;2023-05-13T06:32:38;14.30;50.20
66257;DHT22;53049;43.446;3.698;2023-05-13T06:35:04;14.30;27.30
66257;DHT22;53049;43.446;3.698;2023-05-13T06:37:30;14.30;29.40
66257;DHT22;53049;43.446;3.698;2023-05-13T06:39:55;14.30;22.80
66257;DHT22;53049;43.446;3.698;2023-05-13T06:42:22;14.30;24.90
66257;DHT22;53049;43.446;3.698;2023-05-13T06:44:48;14.30;16.60
66257;DHT22;53049;43.446;3.698;2023-05-13T06:47:13;14.40;24.60
66257;DHT22;53049;43.446;3.698;2023-05-13T06:49:42;14.40;6.20
66257;DHT22;53049;43.446;3.698;2023-05-13T06:52:08;14.50;5.30
66257;DHT22;53049;43.446;3.698;2023-05-13T06:54:34;14.60;15.50
66257;DHT22;53049;43.446;3.698;2023-05-13T06:56:59;14.50;12.90
66257;DHT22;53049;43.446;3.698;2023-05-13T06:59:25;14.50;21.80
66257;DHT22;53049;43.446;3.698;2023-05-13T07:01:51;14.60;13.50
66257;DHT22;53049;43.446;3.698;2023-05-13T07:04:17;14.70;7.00
66257;DHT22;53049;43.446;3.698;2023-05-13T07:06:43;14.80;10.20
66257;DHT22;53049;43.446;3.698;2023-05-13T07:09:08;14.90;5.30
66257;DHT22;53049;43.446;3.698;2023-05-13T07:11:37;14.80;1.00
66257;DHT22;53049;43.446;3.698;2023-05-13T07:14:03;14.90;1.00
66257;DHT22;53049;43.446;3.698;2023-05-13T07:16:28;14.80;1.00
66257;DHT22;53049;43.446;3.698;2023-05-13T07:18:54;14.90;1.00
66257;DHT22;53049;43.446;3.698;2023-05-13T07:21:19;14.90;1.00
66257;DHT22;53049;43.446;3.698;2023-05-13T07:23:46;15.00;1.00
66257;DHT22;53049;43.446;3.698;2023-05-13T07:26:11;15.20;1.00
66257;DHT22;53049;43.446;3.698;2023-05-13T07:28:37;16.50;1.00
66257;DHT22;53049;43.446;3.698;2023-05-13T07:31:06;18.20;1.00
66257;DHT22;53049;43.446;3.698;2023-05-13T07:33:32;19.00;1.00
66257;DHT22;53049;43.446;3.698;2023-05-13T07:35:57;19.00;1.00
66257;DHT22;53049;43.446;3.698;2023-05-13T07:38:23;20.90;1.00
66257;DHT22;53049;43.446;3.698;2023-05-13T07:40:48;23.50;1.00
66257;DHT22;53049;43.446;3.698;2023-05-13T07:43:14;25.30;1.00
66257;DHT22;53049;43.446;3.698;2023-05-13T07:45:48;27.30;1.00
66257;DHT22;53049;43.446;3.698;2023-05-13T07:48:14;28.60;1.00
66257;DHT22;53049;43.446;3.698;2023-05-13T07:50:45;29.20;1.00
66257;DHT22;53049;43.446;3.698;2023-05-13T07:53:11;27.40;1.00
66257;DHT22;53049;43.446;3.698;2023-05-13T07:55:37;28.30;1.00
66257;DHT22;53049;43.446;3.698;2023-05-13T07:58:02;29.00;1.00
66257;DHT22;53049;43.446;3.698;2023-05-13T08:00:28;26.70;1.00
66257;DHT22;53049;43.446;3.698;2023-05-13T08:02:53;27.60;1.00
66257;DHT22;53049;43.446;3.698;2023-05-13T08:05:20;29.20;1.00
66257;DHT22;53049;43.446;3.698;2023-05-13T08:07:46;27.80;1.00
66257;DHT22;53049;43.446;3.698;2023-05-13T08:10:11;29.20;1.00
66257;DHT22;53049;43.446;3.698;2023-05-13T08:12:37;27.80;1.00
66257;DHT22;53049;43.446;3.698;2023-05-13T08:15:05;26.50;1.00
66257;DHT22;53049;43.446;3.698;2023-05-13T08:17:34;29.20;1.00
66257;DHT22;53049;43.446;3.698;2023-05-13T08:20:00;26.50;1.00
66257;DHT22;53049;43.446;3.698;2023-05-13T08:22:26;24.80;1.00
66257;DHT22;53049;43.446;3.698;2023-05-13T08:24:52;22.00;1.00
66257;DHT22;53049;43.446;3.698;2023-05-13T08:27:18;20.40;1.00
66257;DHT22;53049;43.446;3.698;2023-05-13T08:29:43;19.50;1.00
66257;DHT22;53049;43.446;3.698;2023-05-13T08:32:09;19.00;1.00
66257;DHT22;53049;43.446;3.698;2023-05-13T08:34:35;18.50;1.00
66257;DHT22;53049;43.446;3.698;2023-05-13T08:37:01;18.50;1.00
66257;DHT22;53049;43.446;3.698;2023-05-13T08:39:27;18.50;1.00
66257;DHT22;53049;43.446;3.698;2023-05-13T08:41:55;18.30;1.00
66257;DHT22;53049;43.446;3.698;2023-05-13T08:44:24;18.00;1.00
66257;DHT22;53049;43.446;3.698;2023-05-13T08:47:12;18.20;1.00
66257;DHT22;53049;43.446;3.698;2023-05-13T08:49:38;17.90;1.00
66257;DHT22;53049;43.446;3.698;2023-05-13T08:52:07;17.70;1.00
66257;DHT22;53049;43.446;3.698;2023-05-13T08:54:33;17.50;1.00
66257;DHT22;53049;43.446;3.698;2023-05-13T08:57:00;17.40;1.00
66257;DHT22;53049;43.446;3.698;2023-05-13T08:59:26;17.30;1.00
66257;DHT22;53049;43.446;3.698;2023-05-13T09:01:51;17.20;1.00
66257;DHT22;53049;43.446;3.698;2023-05-13T09:04:18;17.10;1.00
66257;DHT22;53049;43.446;3.698;2023-05-13T09:06:46;17.10;1.00
66257;DHT22;53049;43.446;3.698;2023-05-13T09:09:12;17.00;1.00
66257;DHT22;53049;43.446;3.698;2023-05-13T09:11:38;16.90;1.00
66257;DHT22;53049;43.446;3.698;2023-05-13T09:14:04;17.00;1.00
66257;DHT22;53049;43.446;3.698;2023-05-13T09:16:32;16.90;1.00
66257;DHT22;53049;43.446;3.698;2023-05-13T09:19:05;16.70;1.00
66257;DHT22;53049;43.446;3.698;2023-05-13T09:21:32;16.70;1.00
66257;DHT22;53049;43.446;3.698;2023-05-13T09:24:10;16.60;1.00
66257;DHT22;53049;43.446;3.698;2023-05-13T09:26:37;16.60;1.00
66257;DHT22;53049;43.446;3.698;2023-05-13T09:29:19;16.70;1.00
66257;DHT22;53049;43.446;3.698;2023-05-13T09:31:47;16.70;1.00
66257;DHT22;53049;43.446;3.698;2023-05-13T09:34:20;16.60;1.00
66257;DHT22;53049;43.446;3.698;2023-05-13T09:36:54;16.60;1.00
66257;DHT22;53049;43.446;3.698;2023-05-13T09:39:20;16.60;1.00
66257;DHT22;53049;43.446;3.698;2023-05-13T09:41:46;16.60;1.00
66257;DHT22;53049;43.446;3.698;2023-05-13T09:44:12;16.50;1.00
66257;DHT22;53049;43.446;3.698;2023-05-13T09:46:37;16.40;1.00
66257;DHT22;53049;43.446;3.698;2023-05-13T09:49:03;16.40;1.00
66257;DHT22;53049;43.446;3.698;2023-05-13T09:51:30;16.40;1.00
66257;DHT22;53049;43.446;3.698;2023-05-13T09:54:02;16.40;1.00
66257;DHT22;53049;43.446;3.698;2023-05-13T09:56:28;16.40;1.00
66257;DHT22;53049;43.446;3.698;2023-05-13T09:58:55;16.40;1.00
66257;DHT22;53049;43.446;3.698;2023-05-13T10:01:21;16.40;1.00
66257;DHT22;53049;43.446;3.698;2023-05-13T10:03:47;16.40;1.00
66257;DHT22;53049;43.446;3.698;2023-05-13T10:06:16;16.40;1.00
66257;DHT22;53049;43.446;3.698;2023-05-13T10:08:46;16.50;1.00
66257;DHT22;53049;43.446;3.698;2023-05-13T10:11:14;16.60;1.00
66257;DHT22;53049;43.446;3.698;2023-05-13T10:13:42;16.60;1.00
66257;DHT22;53049;43.446;3.698;2023-05-13T10:16:10;16.80;1.00
66257;DHT22;53049;43.446;3.698;2023-05-13T10:18:36;17.40;1.00
66257;DHT22;53049;43.446;3.698;2023-05-13T10:21:02;18.30;1.00
66257;DHT22;53049;43.446;3.698;2023-05-13T10:23:28;19.40;1.00
66257;DHT22;53049;43.446;3.698;2023-05-13T10:25:54;20.50;1.00
66257;DHT22;53049;43.446;3.698;2023-05-13T10:28:21;21.40;1.00
66257;DHT22;53049;43.446;3.698;2023-05-13T10:30:50;21.80;1.00
66257;DHT22;53049;43.446;3.698;2023-05-13T10:33:16;20.80;1.00
66257;DHT22;53049;43.446;3.698;2023-05-13T10:44:10;19.40;1.00
66257;DHT22;53049;43.446;3.698;2023-05-13T10:46:36;19.10;1.00
66257;DHT22;53049;43.446;3.698;2023-05-13T10:49:04;18.80;1.00
66257;DHT22;53049;43.446;3.698;2023-05-13T10:51:29;18.60;1.00
66257;DHT22;53049;43.446;3.698;2023-05-13T10:53:56;18.50;1.00
66257;DHT22;53049;43.446;3.698;2023-05-13T10:56:25;18.40;1.00
66257;DHT22;53049;43.446;3.698;2023-05-13T10:59:04;18.30;1.00
66257;DHT22;53049;43.446;3.698;2023-05-13T11:04:01;18.20;1.00
66257;DHT22;53049;43.446;3.698;2023-05-13T11:06:37;18.10;1.00
66257;DHT22;53049;43.446;3.698;2023-05-13T11:09:06;18.30;1.00
66257;DHT22;53049;43.446;3.698;2023-05-13T11:11:33;18.40;1.00
66257;DHT22;53049;43.446;3.698;2023-05-13T11:14:23;18.60;1.00
66257;DHT22;53049;43.446;3.698;2023-05-13T11:19:28;18.80;1.00
66257;DHT22;53049;43.446;3.698;2023-05-13T11:22:10;19.10;1.00
66257;DHT22;53049;43.446;3.698;2023-05-13T11:24:37;19.20;1.00
66257;DHT22;53049;43.446;3.698;2023-05-13T11:27:30;19.10;1.00
66257;DHT22;53049;43.446;3.698;2023-05-13T11:29:57;19.00;1.00
66257;DHT22;53049;43.446;3.698;2023-05-13T11:35:29;19.10;1.00
66257;DHT22;53049;43.446;3.698;2023-05-13T11:37:56;19.20;1.00
66257;DHT22;53049;43.446;3.698;2023-05-13T11:40:30;19.20;1.00
66257;DHT22;53049;43.446;3.698;2023-05-13T11:42:57;19.40;1.00
66257;DHT22;53049;43.446;3.698;2023-05-13T11:45:24;19.50;1.00
66257;DHT22;53049;43.446;3.698;2023-05-13T11:47:51;19.60;1.00
66257;DHT22;53049;43.446;3.698;2023-05-13T11:50:27;19.40;1.00
66257;DHT22;53049;43.446;3.698;2023-05-13T11:52:56;19.50;1.00
66257;DHT22;53049;43.446;3.698;2023-05-13T11:55:30;19.40;1.00
66257;DHT22;53049;43.446;3.698;2023-05-13T11:57:56;19.20;1.00
66257;DHT22;53049;43.446;3.698;2023-05-13T12:00:26;19.20;1.00
66257;DHT22;53049;43.446;3.698;2023-05-13T12:02:52;19.20;1.00
66257;DHT22;53049;43.446;3.698;2023-05-13T12:05:18;19.30;1.00
66257;DHT22;53049;43.446;3.698;2023-05-13T12:07:43;19.50;1.00
66257;DHT22;53049;43.446;3.698;2023-05-13T12:10:10;19.70;1.00
66257;DHT22;53049;43.446;3.698;2023-05-13T12:12:40;19.70;1.00
66257;DHT22;53049;43.446;3.698;2023-05-13T12:15:11;19.70;1.00
66257;DHT22;53049;43.446;3.698;2023-05-13T12:17:37;19.60;1.00
66257;DHT22;53049;43.446;3.698;2023-05-13T12:20:14;19.60;1.00
66257;DHT22;53049;43.446;3.698;2023-05-13T12:25:43;19.40;1.00
66257;DHT22;53049;43.446;3.698;2023-05-13T12:28:25;19.20;1.00
66257;DHT22;53049;43.446;3.698;2023-05-13T12:30:58;19.20;1.00
66257;DHT22;53049;43.446;3.698;2023-05-13T12:33:41;19.40;1.00
66257;DHT22;53049;43.446;3.698;2023-05-13T12:36:25;19.60;1.00
66257;DHT22;53049;43.446;3.698;2023-05-13T12:39:09;19.70;1.00
66257;DHT22;53049;43.446;3.698;2023-05-13T12:41:40;19.70;1.00
66257;DHT22;53049;43.446;3.698;2023-05-13T12:44:11;19.50;1.00
66257;DHT22;53049;43.446;3.698;2023-05-13T12:46:48;19.40;1.00
66257;DHT22;53049;43.446;3.698;2023-05-13T12:49:14;19.40;1.00
66257;DHT22;53049;43.446;3.698;2023-05-13T12:51:39;19.50;1.00
66257;DHT22;53049;43.446;3.698;2023-05-13T12:54:05;19.70;1.00
66257;DHT22;53049;43.446;3.698;2023-05-13T12:56:31;19.80;1.00
66257;DHT22;53049;43.446;3.698;2023-05-13T12:58:56;19.80;1.00
66257;DHT22;53049;43.446;3.698;2023-05-13T13:01:22;19.60;1.00
66257;DHT22;53049;43.446;3.698;2023-05-13T13:03:48;19.50;1.00
66257;DHT22;53049;43.446;3.698;2023-05-13T13:06:14;19.60;1.00
66257;DHT22;53049;43.446;3.698;2023-05-13T13:08:39;19.50;1.00
66257;DHT22;53049;43.446;3.698;2023-05-13T13:11:05;19.40;1.00
66257;DHT22;53049;43.446;3.698;2023-05-13T13:13:32;19.20;1.00
66257;DHT22;53049;43.446;3.698;2023-05-13T13:15:58;19.20;1.00
66257;DHT22;53049;43.446;3.698;2023-05-13T13:18:24;19.20;1.00
66257;DHT22;53049;43.446;3.698;2023-05-13T13:20:50;19.10;1.00
66257;DHT22;53049;43.446;3.698;2023-05-13T13:23:17;19.00;1.00
66257;DHT22;53049;43.446;3.698;2023-05-13T13:25:43;18.70;1.00
66257;DHT22;53049;43.446;3.698;2023-05-13T13:28:09;18.50;1.00
66257;DHT22;53049;43.446;3.698;2023-05-13T13:30:35;18.30;1.00
66257;DHT22;53049;43.446;3.698;2023-05-13T13:33:01;18.40;1.00
66257;DHT22;53049;43.446;3.698;2023-05-13T13:35:27;18.40;1.00
66257;DHT22;53049;43.446;3.698;2023-05-13T13:37:52;18.40;1.00
66257;DHT22;53049;43.446;3.698;2023-05-13T13:40:19;18.30;1.00
66257;DHT22;53049;43.446;3.698;2023-05-13T13:42:45;18.20;1.00
66257;DHT22;53049;43.446;3.698;2023-05-13T13:45:11;18.00;1.00
66257;DHT22;53049;43.446;3.698;2023-05-13T13:47:37;17.80;1.00
66257;DHT22;53049;43.446;3.698;2023-05-13T13:50:04;17.60;1.00
66257;DHT22;53049;43.446;3.698;2023-05-13T13:52:29;17.50;1.00
66257;DHT22;53049;43.446;3.698;2023-05-13T13:54:55;17.50;1.00
66257;DHT22;53049;43.446;3.698;2023-05-13T13:57:21;17.40;1.00
66257;DHT22;53049;43.446;3.698;2023-05-13T13:59:46;17.30;1.00
66257;DHT22;53049;43.446;3.698;2023-05-13T14:02:12;17.20;1.00
66257;DHT22;53049;43.446;3.698;2023-05-13T14:04:37;17.00;1.00
66257;DHT22;53049;43.446;3.698;2023-05-13T14:07:04;16.90;1.00
66257;DHT22;53049;43.446;3.698;2023-05-13T14:09:29;16.80;1.00
66257;DHT22;53049;43.446;3.698;2023-05-13T14:11:57;16.70;1.00
66257;DHT22;53049;43.446;3.698;2023-05-13T14:14:22;16.60;1.00
66257;DHT22;53049;43.446;3.698;2023-05-13T14:16:49;16.60;1.00
66257;DHT22;53049;43.446;3.698;2023-05-13T14:19:15;16.70;1.00
66257;DHT22;53049;43.446;3.698;2023-05-13T14:21:46;16.80;1.00
66257;DHT22;53049;43.446;3.698;2023-05-13T14:24:11;17.00;1.00
66257;DHT22;53049;43.446;3.698;2023-05-13T14:26:37;17.30;1.00
66257;DHT22;53049;43.446;3.698;2023-05-13T14:29:03;17.50;1.00
66257;DHT22;53049;43.446;3.698;2023-05-13T14:31:29;17.70;1.00
66257;DHT22;53049;43.446;3.698;2023-05-13T14:33:57;17.90;1.00
66257;DHT22;53049;43.446;3.698;2023-05-13T14:36:23;18.20;1.00
66257;DHT22;53049;43.446;3.698;2023-05-13T14:38:51;18.40;1.00
66257;DHT22;53049;43.446;3.698;2023-05-13T14:41:17;18.70;1.00
66257;DHT22;53049;43.446;3.698;2023-05-13T14:43:47;18.70;1.00
66257;DHT22;53049;43.446;3.698;2023-05-13T14:46:13;18.90;1.00
66257;DHT22;53049;43.446;3.698;2023-05-13T14:48:38;18.90;1.00
66257;DHT22;53049;43.446;3.698;2023-05-13T14:51:04;19.00;1.00
66257;DHT22;53049;43.446;3.698;2023-05-13T14:53:30;19.00;1.00
66257;DHT22;53049;43.446;3.698;2023-05-13T14:55:55;19.00;1.00
66257;DHT22;53049;43.446;3.698;2023-05-13T14:58:21;18.90;1.00
66257;DHT22;53049;43.446;3.698;2023-05-13T15:00:47;18.90;1.00
66257;DHT22;53049;43.446;3.698;2023-05-13T15:03:13;19.10;1.00
66257;DHT22;53049;43.446;3.698;2023-05-13T15:05:43;19.20;1.00
66257;DHT22;53049;43.446;3.698;2023-05-13T15:08:09;19.20;1.00
66257;DHT22;53049;43.446;3.698;2023-05-13T15:10:34;19.40;1.00
66257;DHT22;53049;43.446;3.698;2023-05-13T15:13:00;19.30;1.00
66257;DHT22;53049;43.446;3.698;2023-05-13T15:15:26;19.20;1.00
66257;DHT22;53049;43.446;3.698;2023-05-13T15:17:51;19.40;1.00
66257;DHT22;53049;43.446;3.698;2023-05-13T15:20:17;19.30;1.00
66257;DHT22;53049;43.446;3.698;2023-05-13T15:22:43;19.20;1.00
66257;DHT22;53049;43.446;3.698;2023-05-13T15:25:09;19.20;1.00
66257;DHT22;53049;43.446;3.698;2023-05-13T15:27:34;19.20;1.00
66257;DHT22;53049;43.446;3.698;2023-05-13T15:30:00;19.30;1.00
66257;DHT22;53049;43.446;3.698;2023-05-13T15:32:26;19.40;1.00
66257;DHT22;53049;43.446;3.698;2023-05-13T15:34:52;19.50;1.00
66257;DHT22;53049;43.446;3.698;2023-05-13T15:37:17;19.50;1.00
66257;DHT22;53049;43.446;3.698;2023-05-13T15:39:43;19.60;1.00
66257;DHT22;53049;43.446;3.698;2023-05-13T15:42:09;19.50;1.00
66257;DHT22;53049;43.446;3.698;2023-05-13T15:44:34;19.40;1.00
66257;DHT22;53049;43.446;3.698;2023-05-13T15:47:00;19.50;1.00
66257;DHT22;53049;43.446;3.698;2023-05-13T15:49:28;19.70;1.00
66257;DHT22;53049;43.446;3.698;2023-05-13T15:51:53;19.90;1.00
66257;DHT22;53049;43.446;3.698;2023-05-13T15:54:20;19.90;1.00
66257;DHT22;53049;43.446;3.698;2023-05-13T15:56:46;19.90;1.00
66257;DHT22;53049;43.446;3.698;2023-05-13T15:59:12;20.00;1.00
66257;DHT22;53049;43.446;3.698;2023-05-13T16:01:37;20.00;1.00
66257;DHT22;53049;43.446;3.698;2023-05-13T16:04:06;19.80;1.00